Palmer, Pennsylvania
Current Conditions -  °F | °C
As of 6:51 AM on Sunday 25 Jan 2015 (Local Time) from KABE Reporting Station
Overcast Overcast  
Wind Chill: 26°   Ceiling: 3200
Heat Index: 35°   Visibility: 10mi
Dew Point: 27°   Wind: 13mph
Humidity: 72%   Direction: 240°WSW
Pressure: 29.67"   Gusts: NA
Location:  40.6892°N, 75.2775°W
Report Text: KABE 251151Z 24011KT 10SM BKN032 OVC039 02/M03 A2967 RMK AO2 SLP051 70003 T00171028 10022 20011 53019
Loading
Personal Weather Stations






























Interactive Weather Map New forecast layout! Learn more

10-Day Weather Forecast

Advertisements
Track Severe Weather on mobile